sensor_id;sensor_type;location;lat;lon;timestamp;temperature;humidity
74661;SHT31;63191;39.566;2.654;2023-05-27T00:00:34;19.14;71.31
74661;SHT31;63191;39.566;2.654;2023-05-27T00:02:59;19.13;71.32
74661;SHT31;63191;39.566;2.654;2023-05-27T00:05:26;19.10;71.31
74661;SHT31;63191;39.566;2.654;2023-05-27T00:07:52;19.07;71.32
74661;SHT31;63191;39.566;2.654;2023-05-27T00:10:18;19.04;71.38
74661;SHT31;63191;39.566;2.654;2023-05-27T00:12:43;18.99;71.38
74661;SHT31;63191;39.566;2.654;2023-05-27T00:15:09;18.95;71.42
74661;SHT31;63191;39.566;2.654;2023-05-27T00:17:35;18.93;71.49
74661;SHT31;63191;39.566;2.654;2023-05-27T00:20:01;18.91;71.49
74661;SHT31;63191;39.566;2.654;2023-05-27T00:22:33;18.90;71.45
74661;SHT31;63191;39.566;2.654;2023-05-27T00:25:00;18.87;71.41
74661;SHT31;63191;39.566;2.654;2023-05-27T00:27:27;18.84;71.40
74661;SHT31;63191;39.566;2.654;2023-05-27T00:29:54;18.81;71.41
74661;SHT31;63191;39.566;2.654;2023-05-27T00:32:20;18.77;71.49
74661;SHT31;63191;39.566;2.654;2023-05-27T00:34:45;18.74;71.50
74661;SHT31;63191;39.566;2.654;2023-05-27T00:37:11;18.72;71.53
74661;SHT31;63191;39.566;2.654;2023-05-27T00:39:39;18.69;71.59
74661;SHT31;63191;39.566;2.654;2023-05-27T00:42:06;18.68;71.60
74661;SHT31;63191;39.566;2.654;2023-05-27T00:44:32;18.68;71.60
74661;SHT31;63191;39.566;2.654;2023-05-27T00:46:58;18.66;71.61
74661;SHT31;63191;39.566;2.654;2023-05-27T00:49:25;18.63;71.64
74661;SHT31;63191;39.566;2.654;2023-05-27T00:51:52;18.61;71.68
74661;SHT31;63191;39.566;2.654;2023-05-27T00:54:18;18.57;71.70
74661;SHT31;63191;39.566;2.654;2023-05-27T00:56:44;18.54;71.78
74661;SHT31;63191;39.566;2.654;2023-05-27T00:59:09;18.51;71.80
74661;SHT31;63191;39.566;2.654;2023-05-27T01:01:36;18.49;71.82
74661;SHT31;63191;39.566;2.654;2023-05-27T01:04:04;18.48;71.84
74661;SHT31;63191;39.566;2.654;2023-05-27T01:06:42;18.49;71.88
74661;SHT31;63191;39.566;2.654;2023-05-27T01:15:08;18.48;72.05
74661;SHT31;63191;39.566;2.654;2023-05-27T01:17:35;18.48;72.12
74661;SHT31;63191;39.566;2.654;2023-05-27T01:20:03;18.49;72.14
74661;SHT31;63191;39.566;2.654;2023-05-27T01:22:35;18.49;72.17
74661;SHT31;63191;39.566;2.654;2023-05-27T01:25:02;18.49;72.20
74661;SHT31;63191;39.566;2.654;2023-05-27T01:27:29;18.50;72.20
74661;SHT31;63191;39.566;2.654;2023-05-27T01:29:55;18.53;72.14
74661;SHT31;63191;39.566;2.654;2023-05-27T01:32:27;18.55;72.10
74661;SHT31;63191;39.566;2.654;2023-05-27T01:35:09;18.58;72.04
74661;SHT31;63191;39.566;2.654;2023-05-27T01:37:42;18.60;72.00
74661;SHT31;63191;39.566;2.654;2023-05-27T01:40:10;18.61;71.94
74661;SHT31;63191;39.566;2.654;2023-05-27T01:42:39;18.61;71.90
74661;SHT31;63191;39.566;2.654;2023-05-27T01:45:06;18.59;71.80
74661;SHT31;63191;39.566;2.654;2023-05-27T01:47:34;18.57;71.75
74661;SHT31;63191;39.566;2.654;2023-05-27T01:50:00;18.54;71.70
74661;SHT31;63191;39.566;2.654;2023-05-27T01:52:26;18.50;71.70
74661;SHT31;63191;39.566;2.654;2023-05-27T01:54:52;18.46;71.70
74661;SHT31;63191;39.566;2.654;2023-05-27T01:57:18;18.44;71.70
74661;SHT31;63191;39.566;2.654;2023-05-27T01:59:45;18.43;71.69
74661;SHT31;63191;39.566;2.654;2023-05-27T02:02:11;18.43;71.68
74661;SHT31;63191;39.566;2.654;2023-05-27T02:04:37;18.42;71.68
74661;SHT31;63191;39.566;2.654;2023-05-27T02:07:03;18.40;71.70
74661;SHT31;63191;39.566;2.654;2023-05-27T02:09:29;18.38;71.74
74661;SHT31;63191;39.566;2.654;2023-05-27T02:11:55;18.36;71.80
74661;SHT31;63191;39.566;2.654;2023-05-27T02:14:20;18.34;71.84
74661;SHT31;63191;39.566;2.654;2023-05-27T02:16:47;18.33;71.80
74661;SHT31;63191;39.566;2.654;2023-05-27T02:19:14;18.29;71.81
74661;SHT31;63191;39.566;2.654;2023-05-27T02:21:41;18.25;71.80
74661;SHT31;63191;39.566;2.654;2023-05-27T02:24:07;18.22;71.82
74661;SHT31;63191;39.566;2.654;2023-05-27T02:26:33;18.20;71.80
74661;SHT31;63191;39.566;2.654;2023-05-27T02:28:59;18.19;71.80
74661;SHT31;63191;39.566;2.654;2023-05-27T02:31:25;18.18;71.80
74661;SHT31;63191;39.566;2.654;2023-05-27T02:33:52;18.16;71.80
74661;SHT31;63191;39.566;2.654;2023-05-27T02:36:18;18.15;71.70
74661;SHT31;63191;39.566;2.654;2023-05-27T02:38:46;18.13;71.61
74661;SHT31;63191;39.566;2.654;2023-05-27T02:41:12;18.11;71.54
74661;SHT31;63191;39.566;2.654;2023-05-27T02:43:37;18.10;71.50
74661;SHT31;63191;39.566;2.654;2023-05-27T02:46:03;18.08;71.51
74661;SHT31;63191;39.566;2.654;2023-05-27T02:48:29;18.07;71.52
74661;SHT31;63191;39.566;2.654;2023-05-27T02:50:54;18.05;71.53
74661;SHT31;63191;39.566;2.654;2023-05-27T02:53:20;18.04;71.60
74661;SHT31;63191;39.566;2.654;2023-05-27T02:55:46;18.05;71.60
74661;SHT31;63191;39.566;2.654;2023-05-27T02:58:11;18.04;71.60
74661;SHT31;63191;39.566;2.654;2023-05-27T03:00:37;18.03;71.61
74661;SHT31;63191;39.566;2.654;2023-05-27T03:03:03;18.00;71.66
74661;SHT31;63191;39.566;2.654;2023-05-27T03:05:30;17.99;71.71
74661;SHT31;63191;39.566;2.654;2023-05-27T03:07:56;17.96;71.78
74661;SHT31;63191;39.566;2.654;2023-05-27T03:10:21;17.92;71.80
74661;SHT31;63191;39.566;2.654;2023-05-27T03:12:47;17.89;71.83
74661;SHT31;63191;39.566;2.654;2023-05-27T03:15:13;17.86;71.91
74661;SHT31;63191;39.566;2.654;2023-05-27T03:17:39;17.85;72.00
74661;SHT31;63191;39.566;2.654;2023-05-27T03:20:05;17.84;72.01
74661;SHT31;63191;39.566;2.654;2023-05-27T03:22:34;17.84;72.01
74661;SHT31;63191;39.566;2.654;2023-05-27T03:25:01;17.84;72.07
74661;SHT31;63191;39.566;2.654;2023-05-27T03:27:28;17.83;72.15
74661;SHT31;63191;39.566;2.654;2023-05-27T03:29:53;17.82;72.26
74661;SHT31;63191;39.566;2.654;2023-05-27T03:32:20;17.82;72.32
74661;SHT31;63191;39.566;2.654;2023-05-27T03:34:45;17.80;72.38
74661;SHT31;63191;39.566;2.654;2023-05-27T03:37:11;17.78;72.37
74661;SHT31;63191;39.566;2.654;2023-05-27T03:39:39;17.76;72.34
74661;SHT31;63191;39.566;2.654;2023-05-27T03:42:05;17.74;72.31
74661;SHT31;63191;39.566;2.654;2023-05-27T03:44:32;17.70;72.30
74661;SHT31;63191;39.566;2.654;2023-05-27T03:46:58;17.67;72.30
74661;SHT31;63191;39.566;2.654;2023-05-27T03:49:27;17.65;72.26
74661;SHT31;63191;39.566;2.654;2023-05-27T03:51:52;17.63;72.22
74661;SHT31;63191;39.566;2.654;2023-05-27T03:54:19;17.62;72.27
74661;SHT31;63191;39.566;2.654;2023-05-27T03:56:45;17.60;72.30
74661;SHT31;63191;39.566;2.654;2023-05-27T03:59:11;17.55;72.37
74661;SHT31;63191;39.566;2.654;2023-05-27T04:01:37;17.52;72.40
74661;SHT31;63191;39.566;2.654;2023-05-27T04:04:03;17.47;72.48
74661;SHT31;63191;39.566;2.654;2023-05-27T04:06:29;17.42;72.54
74661;SHT31;63191;39.566;2.654;2023-05-27T04:08:56;17.37;72.60
74661;SHT31;63191;39.566;2.654;2023-05-27T04:11:23;17.32;72.60
74661;SHT31;63191;39.566;2.654;2023-05-27T04:13:52;17.29;72.60
74661;SHT31;63191;39.566;2.654;2023-05-27T04:16:17;17.25;72.63
74661;SHT31;63191;39.566;2.654;2023-05-27T04:18:43;17.22;72.68
74661;SHT31;63191;39.566;2.654;2023-05-27T04:21:14;17.22;72.70
74661;SHT31;63191;39.566;2.654;2023-05-27T04:23:40;17.21;72.70
74661;SHT31;63191;39.566;2.654;2023-05-27T04:26:06;17.21;72.66
74661;SHT31;63191;39.566;2.654;2023-05-27T04:28:32;17.21;72.55
74661;SHT31;63191;39.566;2.654;2023-05-27T04:30:59;17.21;72.42
74661;SHT31;63191;39.566;2.654;2023-05-27T04:33:25;17.21;72.27
74661;SHT31;63191;39.566;2.654;2023-05-27T04:35:51;17.21;72.14
74661;SHT31;63191;39.566;2.654;2023-05-27T04:38:19;17.21;72.10
74661;SHT31;63191;39.566;2.654;2023-05-27T04:40:46;17.23;72.01
74661;SHT31;63191;39.566;2.654;2023-05-27T04:43:21;17.26;71.82
74661;SHT31;63191;39.566;2.654;2023-05-27T04:45:48;17.32;71.58
74661;SHT31;63191;39.566;2.654;2023-05-27T04:48:14;17.38;71.27
74661;SHT31;63191;39.566;2.654;2023-05-27T04:50:43;17.44;71.04
74661;SHT31;63191;39.566;2.654;2023-05-27T04:53:09;17.49;70.85
74661;SHT31;63191;39.566;2.654;2023-05-27T04:55:34;17.56;70.62
74661;SHT31;63191;39.566;2.654;2023-05-27T04:58:02;17.64;70.44
74661;SHT31;63191;39.566;2.654;2023-05-27T05:00:28;17.72;70.26
74661;SHT31;63191;39.566;2.654;2023-05-27T05:03:14;17.83;70.00
74661;SHT31;63191;39.566;2.654;2023-05-27T05:05:48;17.95;69.66
74661;SHT31;63191;39.566;2.654;2023-05-27T05:08:16;18.08;69.24
74661;SHT31;63191;39.566;2.654;2023-05-27T05:10:46;18.27;68.72
74661;SHT31;63191;39.566;2.654;2023-05-27T05:13:13;18.51;68.14
74661;SHT31;63191;39.566;2.654;2023-05-27T05:15:39;18.77;67.55
74661;SHT31;63191;39.566;2.654;2023-05-27T05:18:08;19.06;66.95
74661;SHT31;63191;39.566;2.654;2023-05-27T05:20:36;19.35;66.37
74661;SHT31;63191;39.566;2.654;2023-05-27T05:23:02;19.63;65.65
74661;SHT31;63191;39.566;2.654;2023-05-27T05:25:27;19.95;64.92
74661;SHT31;63191;39.566;2.654;2023-05-27T05:27:55;20.29;64.02
74661;SHT31;63191;39.566;2.654;2023-05-27T05:30:21;20.62;63.23
74661;SHT31;63191;39.566;2.654;2023-05-27T05:32:48;20.94;62.38
74661;SHT31;63191;39.566;2.654;2023-05-27T05:35:13;21.28;61.41
74661;SHT31;63191;39.566;2.654;2023-05-27T05:37:39;21.64;60.50
74661;SHT31;63191;39.566;2.654;2023-05-27T05:40:06;22.00;59.79
74661;SHT31;63191;39.566;2.654;2023-05-27T05:42:32;22.36;58.96
74661;SHT31;63191;39.566;2.654;2023-05-27T05:44:58;22.74;57.97
74661;SHT31;63191;39.566;2.654;2023-05-27T05:47:25;23.16;57.08
74661;SHT31;63191;39.566;2.654;2023-05-27T05:49:50;23.57;56.00
74661;SHT31;63191;39.566;2.654;2023-05-27T05:52:16;23.98;54.97
74661;SHT31;63191;39.566;2.654;2023-05-27T05:54:42;24.41;53.69
74661;SHT31;63191;39.566;2.654;2023-05-27T05:57:08;24.83;52.59
74661;SHT31;63191;39.566;2.654;2023-05-27T05:59:33;25.25;51.64
74661;SHT31;63191;39.566;2.654;2023-05-27T06:01:59;25.72;50.37
74661;SHT31;63191;39.566;2.654;2023-05-27T06:04:25;26.16;49.13
74661;SHT31;63191;39.566;2.654;2023-05-27T06:06:50;26.60;48.23
74661;SHT31;63191;39.566;2.654;2023-05-27T06:09:16;27.01;47.65
74661;SHT31;63191;39.566;2.654;2023-05-27T06:11:43;27.38;46.88
74661;SHT31;63191;39.566;2.654;2023-05-27T06:14:08;27.80;46.11
74661;SHT31;63191;39.566;2.654;2023-05-27T06:16:34;28.21;45.22
74661;SHT31;63191;39.566;2.654;2023-05-27T06:19:01;28.63;44.19
74661;SHT31;63191;39.566;2.654;2023-05-27T06:21:27;28.86;43.43
74661;SHT31;63191;39.566;2.654;2023-05-27T06:23:55;29.07;42.51
74661;SHT31;63191;39.566;2.654;2023-05-27T06:26:21;29.25;41.73
74661;SHT31;63191;39.566;2.654;2023-05-27T06:28:47;29.47;40.91
74661;SHT31;63191;39.566;2.654;2023-05-27T06:31:13;29.65;40.55
74661;SHT31;63191;39.566;2.654;2023-05-27T06:33:40;29.59;40.30
74661;SHT31;63191;39.566;2.654;2023-05-27T06:36:07;29.06;40.73
74661;SHT31;63191;39.566;2.654;2023-05-27T06:38:32;28.53;41.27
74661;SHT31;63191;39.566;2.654;2023-05-27T06:40:58;28.06;41.77
74661;SHT31;63191;39.566;2.654;2023-05-27T06:43:24;27.68;42.13
74661;SHT31;63191;39.566;2.654;2023-05-27T06:45:50;27.29;42.61
74661;SHT31;63191;39.566;2.654;2023-05-27T06:48:15;26.94;43.07
74661;SHT31;63191;39.566;2.654;2023-05-27T06:50:41;26.66;43.68
74661;SHT31;63191;39.566;2.654;2023-05-27T06:53:07;26.43;44.11
74661;SHT31;63191;39.566;2.654;2023-05-27T06:55:33;26.23;44.42
74661;SHT31;63191;39.566;2.654;2023-05-27T06:57:59;26.08;44.82
74661;SHT31;63191;39.566;2.654;2023-05-27T07:00:24;26.00;44.97
74661;SHT31;63191;39.566;2.654;2023-05-27T07:02:51;25.94;44.91
74661;SHT31;63191;39.566;2.654;2023-05-27T07:05:16;25.90;44.52
74661;SHT31;63191;39.566;2.654;2023-05-27T07:07:42;25.88;44.19
74661;SHT31;63191;39.566;2.654;2023-05-27T07:10:10;25.81;43.95
74661;SHT31;63191;39.566;2.654;2023-05-27T07:12:35;25.76;44.13
74661;SHT31;63191;39.566;2.654;2023-05-27T07:15:01;25.77;44.20
74661;SHT31;63191;39.566;2.654;2023-05-27T07:17:27;25.84;44.27
74661;SHT31;63191;39.566;2.654;2023-05-27T07:19:53;25.96;43.85
74661;SHT31;63191;39.566;2.654;2023-05-27T07:22:19;26.05;43.27
74661;SHT31;63191;39.566;2.654;2023-05-27T07:24:46;26.11;43.39
74661;SHT31;63191;39.566;2.654;2023-05-27T07:27:12;26.24;43.60
74661;SHT31;63191;39.566;2.654;2023-05-27T07:29:37;26.40;43.19
74661;SHT31;63191;39.566;2.654;2023-05-27T07:32:03;26.48;42.36
74661;SHT31;63191;39.566;2.654;2023-05-27T07:34:29;26.54;42.03
74661;SHT31;63191;39.566;2.654;2023-05-27T07:36:55;26.58;41.87
74661;SHT31;63191;39.566;2.654;2023-05-27T07:39:21;26.57;42.00
74661;SHT31;63191;39.566;2.654;2023-05-27T07:41:47;26.54;41.76
74661;SHT31;63191;39.566;2.654;2023-05-27T07:44:13;26.53;41.91
74661;SHT31;63191;39.566;2.654;2023-05-27T07:46:39;26.56;41.94
74661;SHT31;63191;39.566;2.654;2023-05-27T07:49:07;26.59;41.81
74661;SHT31;63191;39.566;2.654;2023-05-27T07:51:32;26.61;41.78
74661;SHT31;63191;39.566;2.654;2023-05-27T07:53:58;26.64;41.83
74661;SHT31;63191;39.566;2.654;2023-05-27T07:56:24;26.76;41.69
74661;SHT31;63191;39.566;2.654;2023-05-27T07:58:51;26.87;41.66
74661;SHT31;63191;39.566;2.654;2023-05-27T08:01:16;26.97;42.02
74661;SHT31;63191;39.566;2.654;2023-05-27T08:03:42;27.12;41.45
74661;SHT31;63191;39.566;2.654;2023-05-27T08:06:08;27.45;41.35
74661;SHT31;63191;39.566;2.654;2023-05-27T08:08:34;27.86;40.31
74661;SHT31;63191;39.566;2.654;2023-05-27T08:11:02;27.90;39.63
74661;SHT31;63191;39.566;2.654;2023-05-27T08:13:28;27.86;39.58
74661;SHT31;63191;39.566;2.654;2023-05-27T08:15:54;27.92;39.72
74661;SHT31;63191;39.566;2.654;2023-05-27T08:18:20;28.10;39.39
74661;SHT31;63191;39.566;2.654;2023-05-27T08:20:46;28.32;38.83
74661;SHT31;63191;39.566;2.654;2023-05-27T08:23:25;28.38;38.65
74661;SHT31;63191;39.566;2.654;2023-05-27T08:25:52;28.36;37.89
74661;SHT31;63191;39.566;2.654;2023-05-27T08:28:18;28.42;38.18
74661;SHT31;63191;39.566;2.654;2023-05-27T08:30:44;28.68;38.05
74661;SHT31;63191;39.566;2.654;2023-05-27T08:33:10;29.23;36.93
74661;SHT31;63191;39.566;2.654;2023-05-27T08:35:35;29.68;36.48
74661;SHT31;63191;39.566;2.654;2023-05-27T08:38:01;29.74;36.48
74661;SHT31;63191;39.566;2.654;2023-05-27T08:40:27;29.71;36.32
74661;SHT31;63191;39.566;2.654;2023-05-27T08:42:52;29.73;36.34
74661;SHT31;63191;39.566;2.654;2023-05-27T08:45:19;29.86;36.55
74661;SHT31;63191;39.566;2.654;2023-05-27T08:47:45;30.15;36.00
74661;SHT31;63191;39.566;2.654;2023-05-27T08:50:13;30.49;35.38
74661;SHT31;63191;39.566;2.654;2023-05-27T08:52:49;30.62;35.52
74661;SHT31;63191;39.566;2.654;2023-05-27T08:55:19;30.57;34.95
74661;SHT31;63191;39.566;2.654;2023-05-27T08:57:51;30.51;34.77
74661;SHT31;63191;39.566;2.654;2023-05-27T09:00:23;30.52;35.09
74661;SHT31;63191;39.566;2.654;2023-05-27T09:02:51;30.60;35.12
74661;SHT31;63191;39.566;2.654;2023-05-27T09:05:19;30.91;34.60
74661;SHT31;63191;39.566;2.654;2023-05-27T09:07:46;31.35;33.62
74661;SHT31;63191;39.566;2.654;2023-05-27T09:10:11;31.61;32.93
74661;SHT31;63191;39.566;2.654;2023-05-27T09:12:37;31.59;33.05
74661;SHT31;63191;39.566;2.654;2023-05-27T09:15:03;31.47;33.64
74661;SHT31;63191;39.566;2.654;2023-05-27T09:17:30;31.46;33.43
74661;SHT31;63191;39.566;2.654;2023-05-27T09:19:56;31.50;33.10
74661;SHT31;63191;39.566;2.654;2023-05-27T09:22:23;31.62;33.32
74661;SHT31;63191;39.566;2.654;2023-05-27T09:24:55;31.98;33.04
74661;SHT31;63191;39.566;2.654;2023-05-27T09:27:28;32.54;31.68
74661;SHT31;63191;39.566;2.654;2023-05-27T09:29:57;32.77;31.20
74661;SHT31;63191;39.566;2.654;2023-05-27T09:32:34;32.66;31.77
74661;SHT31;63191;39.566;2.654;2023-05-27T09:35:05;32.26;32.95
74661;SHT31;63191;39.566;2.654;2023-05-27T09:37:33;32.08;33.96
74661;SHT31;63191;39.566;2.654;2023-05-27T09:42:43;31.65;34.60
74661;SHT31;63191;39.566;2.654;2023-05-27T09:45:12;31.50;34.82
74661;SHT31;63191;39.566;2.654;2023-05-27T09:47:42;31.70;34.62
74661;SHT31;63191;39.566;2.654;2023-05-27T09:50:14;32.35;32.97
74661;SHT31;63191;39.566;2.654;2023-05-27T09:52:43;32.64;32.04
74661;SHT31;63191;39.566;2.654;2023-05-27T09:55:11;32.50;32.76
74661;SHT31;63191;39.566;2.654;2023-05-27T09:57:38;32.15;33.23
74661;SHT31;63191;39.566;2.654;2023-05-27T10:00:05;31.95;32.41
74661;SHT31;63191;39.566;2.654;2023-05-27T10:02:37;31.84;33.81
74661;SHT31;63191;39.566;2.654;2023-05-27T10:05:06;31.80;35.16
74661;SHT31;63191;39.566;2.654;2023-05-27T10:07:37;31.62;37.88
74661;SHT31;63191;39.566;2.654;2023-05-27T10:10:08;31.47;38.31
74661;SHT31;63191;39.566;2.654;2023-05-27T10:12:37;31.57;37.28
74661;SHT31;63191;39.566;2.654;2023-05-27T10:15:05;31.87;35.53
74661;SHT31;63191;39.566;2.654;2023-05-27T10:17:47;32.16;34.62
74661;SHT31;63191;39.566;2.654;2023-05-27T10:20:30;32.19;33.47
74661;SHT31;63191;39.566;2.654;2023-05-27T10:23:15;31.90;33.36
74661;SHT31;63191;39.566;2.654;2023-05-27T10:28:26;31.25;34.16
74661;SHT31;63191;39.566;2.654;2023-05-27T10:31:29;31.39;35.03
74661;SHT31;63191;39.566;2.654;2023-05-27T10:33:56;31.54;33.89
74661;SHT31;63191;39.566;2.654;2023-05-27T10:36:24;31.44;34.16
74661;SHT31;63191;39.566;2.654;2023-05-27T10:38:54;31.50;35.04
74661;SHT31;63191;39.566;2.654;2023-05-27T10:41:22;31.97;34.78
74661;SHT31;63191;39.566;2.654;2023-05-27T10:43:58;32.55;33.49
74661;SHT31;63191;39.566;2.654;2023-05-27T10:46:25;32.74;32.72
74661;SHT31;63191;39.566;2.654;2023-05-27T10:48:52;32.76;34.42
74661;SHT31;63191;39.566;2.654;2023-05-27T10:51:18;32.82;35.29
74661;SHT31;63191;39.566;2.654;2023-05-27T10:53:43;32.70;34.44
74661;SHT31;63191;39.566;2.654;2023-05-27T10:56:11;32.42;34.74
74661;SHT31;63191;39.566;2.654;2023-05-27T10:58:37;32.15;36.62
74661;SHT31;63191;39.566;2.654;2023-05-27T11:01:07;31.73;36.85
74661;SHT31;63191;39.566;2.654;2023-05-27T11:03:45;31.00;37.76
74661;SHT31;63191;39.566;2.654;2023-05-27T11:06:13;30.22;39.47
74661;SHT31;63191;39.566;2.654;2023-05-27T11:08:40;29.59;43.64
74661;SHT31;63191;39.566;2.654;2023-05-27T11:11:09;29.29;45.50
74661;SHT31;63191;39.566;2.654;2023-05-27T11:13:40;28.98;45.82
74661;SHT31;63191;39.566;2.654;2023-05-27T11:16:11;28.68;46.19
74661;SHT31;63191;39.566;2.654;2023-05-27T11:18:41;28.37;47.05
74661;SHT31;63191;39.566;2.654;2023-05-27T11:21:12;28.13;47.37
74661;SHT31;63191;39.566;2.654;2023-05-27T11:23:44;27.97;47.30
74661;SHT31;63191;39.566;2.654;2023-05-27T11:26:22;27.76;49.16
74661;SHT31;63191;39.566;2.654;2023-05-27T11:28:58;27.35;52.03
74661;SHT31;63191;39.566;2.654;2023-05-27T11:31:27;26.87;53.74
74661;SHT31;63191;39.566;2.654;2023-05-27T11:33:56;26.43;54.39
74661;SHT31;63191;39.566;2.654;2023-05-27T11:36:25;26.13;54.93
74661;SHT31;63191;39.566;2.654;2023-05-27T11:41:26;25.92;55.93
74661;SHT31;63191;39.566;2.654;2023-05-27T11:43:58;26.13;55.32
74661;SHT31;63191;39.566;2.654;2023-05-27T11:46:38;26.39;52.89
74661;SHT31;63191;39.566;2.654;2023-05-27T11:49:08;26.61;50.86
74661;SHT31;63191;39.566;2.654;2023-05-27T11:51:42;27.02;49.99
74661;SHT31;63191;39.566;2.654;2023-05-27T11:54:17;27.68;48.65
74661;SHT31;63191;39.566;2.654;2023-05-27T11:56:56;28.05;47.17
74661;SHT31;63191;39.566;2.654;2023-05-27T11:59:24;28.22;46.35
74661;SHT31;63191;39.566;2.654;2023-05-27T12:01:51;28.30;45.21
74661;SHT31;63191;39.566;2.654;2023-05-27T12:04:20;28.10;45.95
74661;SHT31;63191;39.566;2.654;2023-05-27T12:06:46;27.66;46.40
74661;SHT31;63191;39.566;2.654;2023-05-27T12:09:13;27.23;47.76
74661;SHT31;63191;39.566;2.654;2023-05-27T12:11:40;26.93;50.04
74661;SHT31;63191;39.566;2.654;2023-05-27T12:14:06;26.68;51.21
74661;SHT31;63191;39.566;2.654;2023-05-27T12:16:33;26.38;51.99
74661;SHT31;63191;39.566;2.654;2023-05-27T12:18:59;26.14;53.01
74661;SHT31;63191;39.566;2.654;2023-05-27T12:21:25;25.93;54.01
74661;SHT31;63191;39.566;2.654;2023-05-27T12:23:52;25.79;54.49
74661;SHT31;63191;39.566;2.654;2023-05-27T12:26:17;25.76;55.15
74661;SHT31;63191;39.566;2.654;2023-05-27T12:28:43;25.83;55.36
74661;SHT31;63191;39.566;2.654;2023-05-27T12:31:10;26.02;55.06
74661;SHT31;63191;39.566;2.654;2023-05-27T12:33:36;26.26;53.75
74661;SHT31;63191;39.566;2.654;2023-05-27T12:36:02;26.47;53.20
74661;SHT31;63191;39.566;2.654;2023-05-27T12:38:30;26.68;53.16
74661;SHT31;63191;39.566;2.654;2023-05-27T12:40:56;26.83;52.98
74661;SHT31;63191;39.566;2.654;2023-05-27T12:43:23;26.92;52.30
74661;SHT31;63191;39.566;2.654;2023-05-27T12:45:49;26.91;52.16
74661;SHT31;63191;39.566;2.654;2023-05-27T12:48:17;26.95;51.97
74661;SHT31;63191;39.566;2.654;2023-05-27T12:50:43;27.04;52.54
74661;SHT31;63191;39.566;2.654;2023-05-27T12:53:10;27.06;52.93
74661;SHT31;63191;39.566;2.654;2023-05-27T12:55:36;27.05;53.01
74661;SHT31;63191;39.566;2.654;2023-05-27T12:58:02;27.02;52.65
74661;SHT31;63191;39.566;2.654;2023-05-27T13:00:28;26.99;52.72
74661;SHT31;63191;39.566;2.654;2023-05-27T13:02:56;26.99;52.66
74661;SHT31;63191;39.566;2.654;2023-05-27T13:05:22;27.06;52.70
74661;SHT31;63191;39.566;2.654;2023-05-27T13:07:55;27.24;52.78
74661;SHT31;63191;39.566;2.654;2023-05-27T13:10:25;27.50;52.26
74661;SHT31;63191;39.566;2.654;2023-05-27T13:12:55;27.70;51.80
74661;SHT31;63191;39.566;2.654;2023-05-27T13:15:24;27.83;51.48
74661;SHT31;63191;39.566;2.654;2023-05-27T13:17:52;27.89;51.49
74661;SHT31;63191;39.566;2.654;2023-05-27T13:20:22;27.97;50.54
74661;SHT31;63191;39.566;2.654;2023-05-27T13:22:49;27.71;49.31
74661;SHT31;63191;39.566;2.654;2023-05-27T13:25:16;27.31;50.32
74661;SHT31;63191;39.566;2.654;2023-05-27T13:27:42;27.01;49.68
74661;SHT31;63191;39.566;2.654;2023-05-27T13:30:10;26.90;49.15
74661;SHT31;63191;39.566;2.654;2023-05-27T13:32:43;26.89;46.66
74661;SHT31;63191;39.566;2.654;2023-05-27T13:35:09;26.91;45.72
74661;SHT31;63191;39.566;2.654;2023-05-27T13:37:36;27.04;45.63
74661;SHT31;63191;39.566;2.654;2023-05-27T13:40:06;27.47;45.94
74661;SHT31;63191;39.566;2.654;2023-05-27T13:42:33;28.00;45.16
74661;SHT31;63191;39.566;2.654;2023-05-27T13:45:00;28.60;43.84
74661;SHT31;63191;39.566;2.654;2023-05-27T13:47:28;29.58;42.22
74661;SHT31;63191;39.566;2.654;2023-05-27T13:49:53;30.70;39.51
74661;SHT31;63191;39.566;2.654;2023-05-27T13:52:20;31.95;38.93
74661;SHT31;63191;39.566;2.654;2023-05-27T13:54:46;33.16;37.61
74661;SHT31;63191;39.566;2.654;2023-05-27T13:57:12;34.29;35.87
74661;SHT31;63191;39.566;2.654;2023-05-27T13:59:38;35.19;34.64
74661;SHT31;63191;39.566;2.654;2023-05-27T14:02:03;35.75;33.31
74661;SHT31;63191;39.566;2.654;2023-05-27T14:04:31;36.03;32.99
74661;SHT31;63191;39.566;2.654;2023-05-27T14:06:57;36.23;32.92
74661;SHT31;63191;39.566;2.654;2023-05-27T14:09:23;36.26;32.30
74661;SHT31;63191;39.566;2.654;2023-05-27T14:11:49;36.02;32.02
74661;SHT31;63191;39.566;2.654;2023-05-27T14:14:15;35.66;32.46
74661;SHT31;63191;39.566;2.654;2023-05-27T14:16:41;35.24;32.44
74661;SHT31;63191;39.566;2.654;2023-05-27T14:19:06;34.64;32.29
74661;SHT31;63191;39.566;2.654;2023-05-27T14:21:32;34.14;32.82
74661;SHT31;63191;39.566;2.654;2023-05-27T14:23:58;33.71;33.08
74661;SHT31;63191;39.566;2.654;2023-05-27T14:26:25;33.30;33.97
74661;SHT31;63191;39.566;2.654;2023-05-27T14:28:51;32.91;34.49
74661;SHT31;63191;39.566;2.654;2023-05-27T14:31:17;32.56;34.87
74661;SHT31;63191;39.566;2.654;2023-05-27T14:33:43;32.21;35.57
74661;SHT31;63191;39.566;2.654;2023-05-27T14:36:09;31.74;36.74
74661;SHT31;63191;39.566;2.654;2023-05-27T14:38:35;30.96;36.93
74661;SHT31;63191;39.566;2.654;2023-05-27T14:41:01;30.25;37.17
74661;SHT31;63191;39.566;2.654;2023-05-27T14:43:27;29.67;38.25
74661;SHT31;63191;39.566;2.654;2023-05-27T14:45:53;29.35;39.65
74661;SHT31;63191;39.566;2.654;2023-05-27T14:48:19;29.30;40.14
74661;SHT31;63191;39.566;2.654;2023-05-27T14:50:45;29.31;40.03
74661;SHT31;63191;39.566;2.654;2023-05-27T14:53:10;29.31;40.17
74661;SHT31;63191;39.566;2.654;2023-05-27T14:55:36;29.22;40.30
74661;SHT31;63191;39.566;2.654;2023-05-27T14:58:02;29.07;40.46
74661;SHT31;63191;39.566;2.654;2023-05-27T15:00:31;29.03;40.66
74661;SHT31;63191;39.566;2.654;2023-05-27T15:02:58;28.93;40.51
74661;SHT31;63191;39.566;2.654;2023-05-27T15:05:24;28.80;40.73
74661;SHT31;63191;39.566;2.654;2023-05-27T15:07:50;28.77;41.30
74661;SHT31;63191;39.566;2.654;2023-05-27T15:10:16;28.82;41.31
74661;SHT31;63191;39.566;2.654;2023-05-27T15:12:43;28.83;41.03
74661;SHT31;63191;39.566;2.654;2023-05-27T15:15:14;28.91;40.91
74661;SHT31;63191;39.566;2.654;2023-05-27T15:17:45;28.93;40.74
74661;SHT31;63191;39.566;2.654;2023-05-27T15:20:12;28.78;40.68
74661;SHT31;63191;39.566;2.654;2023-05-27T15:22:40;28.54;40.89
74661;SHT31;63191;39.566;2.654;2023-05-27T15:25:06;28.44;41.31
74661;SHT31;63191;39.566;2.654;2023-05-27T15:27:33;28.47;41.25
74661;SHT31;63191;39.566;2.654;2023-05-27T15:29:58;28.47;42.15
74661;SHT31;63191;39.566;2.654;2023-05-27T15:32:27;28.13;44.03
74661;SHT31;63191;39.566;2.654;2023-05-27T15:34:54;27.78;44.97
74661;SHT31;63191;39.566;2.654;2023-05-27T15:37:23;27.62;44.92
74661;SHT31;63191;39.566;2.654;2023-05-27T15:39:49;27.61;44.16
74661;SHT31;63191;39.566;2.654;2023-05-27T15:42:16;27.66;43.79
74661;SHT31;63191;39.566;2.654;2023-05-27T15:44:42;27.68;43.42